Time;durP1;ratioP1;P1;durP2;ratioP2;P2;SDS_P1;SDS_P2;PMS_P1;PMS_P2;Temp;Humidity;BMP_temperature;BMP_pressure;BME280_temperature;BME280_humidity;BME280_pressure;Samples;Min_cycle;Max_cycle;Signal;HPM_P1;HPM_P2
2023/03/18 00:01:46;;;;;;;;;;;;;;;5.85;100.00;96289.31;5086284;28;19920;-71
2023/03/18 00:04:12;;;;;;;;;;;;;;;5.80;100.00;96290.38;5081870;28;20209;-69
2023/03/18 00:06:37;;;;;;;;;;;;;;;5.67;100.00;96291.53;5083579;28;20372;-70
2023/03/18 00:09:03;;;;;;;;;;;;;;;5.57;100.00;96289.31;5081815;28;19920;-74
2023/03/18 00:11:29;;;;;;;;;;;;;;;5.62;100.00;96292.59;5084478;28;20622;-69
2023/03/18 00:13:54;;;;;;;;;;;;;;;5.57;100.00;96289.31;5084710;28;19927;-70
2023/03/18 00:16:20;;;;;;;;;;;;;;;5.59;100.00;96301.41;5078842;28;20015;-70
2023/03/18 00:18:46;;;;;;;;;;;;;;;5.58;100.00;96297.09;5084772;28;19916;-70
2023/03/18 00:21:11;;;;;;;;;;;;;;;5.56;100.00;96307.53;5071943;28;20294;-69
2023/03/18 00:23:37;;;;;;;;;;;;;;;5.49;100.00;96302.69;5104669;28;19943;-69
2023/03/18 00:26:03;;;;;;;;;;;;;;;5.35;100.00;96305.75;5102684;28;19915;-75
2023/03/18 00:28:28;;;;;;;;;;;;;;;5.39;100.00;96315.94;5109003;28;19920;-74
2023/03/18 00:30:55;;;;;;;;;;;;;;;5.35;100.00;96313.91;5108598;28;19916;-71
2023/03/18 00:33:21;;;;;;;;;;;;;;;5.33;100.00;96316.19;5090469;28;20011;-70
2023/03/18 00:35:46;;;;;;;;;;;;;;;5.35;100.00;96327.50;5084708;28;20015;-71
2023/03/18 00:38:19;;;;;;;;;;;;;;;5.33;100.00;96329.75;5061454;28;20007;-71
2023/03/18 00:41:03;;;;;;;;;;;;;;;5.22;100.00;96322.41;5082624;28;19916;-69
2023/03/18 00:43:38;;;;;;;;;;;;;;;5.23;100.00;96319.34;5085311;28;20014;-68
2023/03/18 00:46:04;;;;;;;;;;;;;;;5.22;100.00;96319.69;5085016;28;19991;-70
2023/03/18 00:48:30;;;;;;;;;;;;;;;5.16;100.00;96324.56;5065701;28;19932;-71
2023/03/18 00:50:55;;;;;;;;;;;;;;;4.90;100.00;96322.22;5084072;28;20288;-69
2023/03/18 00:53:22;;;;;;;;;;;;;;;4.63;100.00;96323.63;5078109;28;19935;-69
2023/03/18 00:55:47;;;;;;;;;;;;;;;4.40;100.00;96324.03;5083725;28;20334;-71
2023/03/18 00:58:13;;;;;;;;;;;;;;;4.37;100.00;96320.06;5079311;28;19916;-72
2023/03/18 01:00:40;;;;;;;;;;;;;;;4.40;100.00;96322.13;5093007;28;20381;-70
2023/03/18 01:03:06;;;;;;;;;;;;;;;4.46;100.00;96319.19;5067526;28;20289;-68
2023/03/18 01:05:32;;;;;;;;;;;;;;;4.54;100.00;96324.53;5083691;28;19980;-70
2023/03/18 01:07:58;;;;;;;;;;;;;;;4.58;100.00;96327.38;5083167;28;20348;-70
2023/03/18 01:10:23;;;;;;;;;;;;;;;4.65;100.00;96316.75;5060836;28;19939;-71
2023/03/18 01:12:48;;;;;;;;;;;;;;;4.82;100.00;96325.81;5068206;28;19916;-69
2023/03/18 01:15:16;;;;;;;;;;;;;;;4.85;100.00;96325.91;5082183;28;19916;-70
2023/03/18 01:17:41;;;;;;;;;;;;;;;4.89;100.00;96320.59;5076715;28;20003;-71
2023/03/18 01:20:08;;;;;;;;;;;;;;;4.92;100.00;96322.66;5083312;28;20071;-72
2023/03/18 01:22:33;;;;;;;;;;;;;;;4.85;100.00;96319.72;5055112;28;20321;-70
2023/03/18 01:24:58;;;;;;;;;;;;;;;4.65;100.00;96326.81;5103733;28;19916;-70
2023/03/18 01:27:24;;;;;;;;;;;;;;;4.25;100.00;96322.78;5106080;28;19920;-71
2023/03/18 01:29:50;;;;;;;;;;;;;;;3.86;100.00;96329.50;5084930;28;20002;-71
2023/03/18 01:32:16;;;;;;;;;;;;;;;3.68;100.00;96326.16;5097778;28;19961;-70
2023/03/18 01:34:41;;;;;;;;;;;;;;;3.59;100.00;96323.50;5103891;28;19916;-70
2023/03/18 01:37:06;;;;;;;;;;;;;;;3.64;100.00;96317.91;5098295;28;19969;-68
2023/03/18 01:39:33;;;;;;;;;;;;;;;3.87;100.00;96320.25;5103672;28;20014;-68
2023/03/18 01:41:58;;;;;;;;;;;;;;;4.17;100.00;96316.28;5102923;28;19942;-70
2023/03/18 01:44:24;;;;;;;;;;;;;;;4.33;100.00;96319.16;5056950;28;20725;-69
2023/03/18 01:46:50;;;;;;;;;;;;;;;4.46;100.00;96306.41;5081883;28;20355;-70
2023/03/18 01:49:25;;;;;;;;;;;;;;;4.58;100.00;96308.38;5073429;28;19999;-70
2023/03/18 01:51:56;;;;;;;;;;;;;;;4.43;100.00;96311.72;5082329;28;20426;-70
2023/03/18 01:54:22;;;;;;;;;;;;;;;4.41;100.00;96306.63;5077579;28;21005;-70
2023/03/18 01:56:50;;;;;;;;;;;;;;;4.40;100.00;96305.84;5071587;28;19957;-70
2023/03/18 01:59:16;;;;;;;;;;;;;;;4.40;100.00;96305.06;5081298;28;19971;-70
2023/03/18 02:01:42;;;;;;;;;;;;;;;4.26;100.00;96299.16;5072650;28;19944;-70
2023/03/18 02:04:09;;;;;;;;;;;;;;;4.30;100.00;96305.50;5090142;28;19971;-69
2023/03/18 02:06:34;;;;;;;;;;;;;;;4.38;100.00;96310.81;5102710;28;19931;-69
2023/03/18 02:09:00;;;;;;;;;;;;;;;4.46;100.00;96305.63;5102213;28;19916;-68
2023/03/18 02:11:27;;;;;;;;;;;;;;;4.40;100.00;96310.50;5095831;28;19959;-70
2023/03/18 02:13:53;;;;;;;;;;;;;;;4.25;100.00;96313.81;5099918;28;20010;-69
2023/03/18 02:16:24;;;;;;;;;;;;;;;4.10;100.00;96313.34;5057399;28;20440;-70
2023/03/18 02:18:52;;;;;;;;;;;;;;;4.02;100.00;96309.59;5083226;28;20423;-70
2023/03/18 02:21:36;;;;;;;;;;;;;;;3.99;100.00;96304.81;5076697;28;19961;-70
2023/03/18 02:24:14;;;;;;;;;;;;;;;3.91;100.00;96311.13;5081911;28;20401;-72
2023/03/18 02:26:50;;;;;;;;;;;;;;;3.90;100.00;96309.53;5081369;28;20031;-70
2023/03/18 02:29:17;;;;;;;;;;;;;;;4.06;100.00;96314.34;5077731;28;19920;-70
2023/03/18 02:31:43;;;;;;;;;;;;;;;4.12;100.00;96323.84;5081632;28;19916;-70
2023/03/18 02:34:09;;;;;;;;;;;;;;;4.32;100.00;96316.78;5079466;28;19969;-70
2023/03/18 02:36:36;;;;;;;;;;;;;;;4.42;100.00;96327.22;5084790;28;19916;-70
2023/03/18 02:39:02;;;;;;;;;;;;;;;4.53;100.00;96314.78;5084405;28;19920;-69
2023/03/18 02:41:30;;;;;;;;;;;;;;;4.53;100.00;96324.88;5061789;28;20289;-72
2023/03/18 02:43:56;;;;;;;;;;;;;;;4.54;100.00;96321.81;5091007;28;19920;-71
2023/03/18 02:46:42;;;;;;;;;;;;;;;4.55;100.00;96328.03;5080993;28;20307;-69
2023/03/18 02:49:08;;;;;;;;;;;;;;;4.53;100.00;96324.88;5076304;28;20049;-69
2023/03/18 02:51:35;;;;;;;;;;;;;;;4.52;100.00;96336.81;5082807;28;20002;-70
2023/03/18 02:54:04;;;;;;;;;;;;;;;4.50;100.00;96326.34;5091440;28;19917;-69
2023/03/18 02:56:29;;;;;;;;;;;;;;;4.49;100.00;96338.31;5081290;28;20422;-69
2023/03/18 02:58:55;;;;;;;;;;;;;;;4.31;100.00;96329.56;5064296;28;19916;-69
2023/03/18 03:01:21;;;;;;;;;;;;;;;4.17;100.00;96337.19;5077677;28;22255;-70
2023/03/18 03:03:46;;;;;;;;;;;;;;;4.15;100.00;96334.03;5082233;28;20016;-70
2023/03/18 03:06:11;;;;;;;;;;;;;;;4.07;100.00;96330.28;5076528;28;19920;-70
2023/03/18 03:08:37;;;;;;;;;;;;;;;3.93;100.00;96341.41;5083197;28;20370;-69
2023/03/18 03:11:04;;;;;;;;;;;;;;;3.77;100.00;96337.72;5083531;28;19920;-73
2023/03/18 03:13:29;;;;;;;;;;;;;;;3.72;100.00;96344.09;5067679;28;20007;-72
2023/03/18 03:15:55;;;;;;;;;;;;;;;3.76;100.00;96342.34;5086357;28;20007;-72
2023/03/18 03:18:21;;;;;;;;;;;;;;;3.90;100.00;96343.97;5081618;28;19920;-71
2023/03/18 03:20:46;;;;;;;;;;;;;;;4.04;100.00;96339.06;5086126;28;19930;-71
2023/03/18 03:23:13;;;;;;;;;;;;;;;4.11;100.00;96336.63;5082329;28;19947;-70
2023/03/18 03:25:38;;;;;;;;;;;;;;;4.11;100.00;96336.63;5086044;28;19920;-69
2023/03/18 03:28:05;;;;;;;;;;;;;;;4.13;100.00;96334.34;5092141;28;19966;-66
2023/03/18 03:30:30;;;;;;;;;;;;;;;3.97;100.00;96344.22;5085349;28;19951;-70
2023/03/18 03:32:56;;;;;;;;;;;;;;;3.68;100.00;96345.13;5086303;28;19967;-72
2023/03/18 03:35:22;;;;;;;;;;;;;;;3.48;100.00;96338.56;5080750;28;19919;-68
2023/03/18 03:37:47;;;;;;;;;;;;;;;3.34;100.00;96330.69;5067412;28;19928;-72
2023/03/18 03:40:14;;;;;;;;;;;;;;;3.16;100.00;96340.81;5080622;28;19916;-70
2023/03/18 03:42:40;;;;;;;;;;;;;;;3.16;100.00;96343.53;5085886;28;19917;-72
2023/03/18 03:45:06;;;;;;;;;;;;;;;3.18;100.00;96344.00;5088208;28;19921;-72
2023/03/18 03:47:32;;;;;;;;;;;;;;;3.24;100.00;96339.97;5083773;28;20277;-72
2023/03/18 03:49:57;;;;;;;;;;;;;;;3.18;100.00;96336.66;5085502;28;20296;-70
2023/03/18 03:52:22;;;;;;;;;;;;;;;3.19;100.00;96351.00;5063045;28;20758;-72
2023/03/18 03:54:49;;;;;;;;;;;;;;;3.22;100.00;96351.16;5085287;28;19916;-72
2023/03/18 03:57:15;;;;;;;;;;;;;;;3.21;100.00;96343.34;5080256;28;19920;-70
2023/03/18 03:59:40;;;;;;;;;;;;;;;3.19;100.00;96340.97;5084922;28;19927;-72
2023/03/18 04:02:05;;;;;;;;;;;;;;;3.18;100.00;96346.69;5061453;28;19927;-71
2023/03/18 04:04:30;;;;;;;;;;;;;;;3.14;100.00;96345.78;5084150;28;19920;-71
2023/03/18 04:06:57;;;;;;;;;;;;;;;3.15;100.00;96344.63;5084484;28;20408;-69
2023/03/18 04:09:22;;;;;;;;;;;;;;;3.28;100.00;96357.16;5080106;28;20063;-70
2023/03/18 04:11:47;;;;;;;;;;;;;;;3.40;100.00;96343.72;5084361;28;19916;-71
2023/03/18 04:14:13;;;;;;;;;;;;;;;3.39;100.00;96349.44;5080033;28;20379;-71
2023/03/18 04:16:39;;;;;;;;;;;;;;;3.42;100.00;96346.88;5084702;28;19916;-71
2023/03/18 04:19:06;;;;;;;;;;;;;;;3.43;100.00;96342.25;5079858;28;19932;-70
2023/03/18 04:21:32;;;;;;;;;;;;;;;3.48;100.00;96352.91;5087009;28;19958;-71
2023/03/18 04:23:57;;;;;;;;;;;;;;;3.55;100.00;96358.56;5098174;28;19916;-72
2023/03/18 04:26:23;;;;;;;;;;;;;;;3.59;100.00;96354.09;5083810;28;20651;-73
2023/03/18 04:28:49;;;;;;;;;;;;;;;3.62;100.00;96356.13;5066567;28;20293;-72
2023/03/18 04:31:15;;;;;;;;;;;;;;;3.56;100.00;96359.38;5080014;28;19969;-69
2023/03/18 04:33:40;;;;;;;;;;;;;;;3.53;100.00;96370.84;5067058;28;19920;-69
2023/03/18 04:36:07;;;;;;;;;;;;;;;3.55;100.00;96355.09;5079278;28;20077;-72
2023/03/18 04:38:33;;;;;;;;;;;;;;;3.60;100.00;96354.88;5084694;28;19923;-71
2023/03/18 04:40:58;;;;;;;;;;;;;;;3.49;100.00;96353.69;5084756;28;19916;-72
2023/03/18 04:43:23;;;;;;;;;;;;;;;3.34;100.00;96349.63;5079357;28;20343;-72
2023/03/18 04:45:49;;;;;;;;;;;;;;;3.21;100.00;96354.19;5070061;28;19916;-71
2023/03/18 04:48:14;;;;;;;;;;;;;;;3.17;100.00;96358.63;5074689;28;19924;-70
2023/03/18 04:50:39;;;;;;;;;;;;;;;3.21;100.00;96362.28;5081214;28;20034;-71
2023/03/18 04:53:05;;;;;;;;;;;;;;;3.04;100.00;96355.03;5079493;28;20292;-72
2023/03/18 04:55:30;;;;;;;;;;;;;;;2.99;100.00;96355.22;5065176;28;19916;-72
2023/03/18 04:57:56;;;;;;;;;;;;;;;3.09;100.00;96351.38;5084880;28;19920;-69
2023/03/18 05:00:22;;;;;;;;;;;;;;;3.21;100.00;96356.88;5085895;28;20770;-71
2023/03/18 05:02:47;;;;;;;;;;;;;;;3.24;100.00;96357.03;5067534;28;19920;-71
2023/03/18 05:05:13;;;;;;;;;;;;;;;3.22;100.00;96350.34;5079654;28;20356;-71
2023/03/18 05:07:38;;;;;;;;;;;;;;;3.28;100.00;96345.53;5083606;28;19959;-72
2023/03/18 05:10:05;;;;;;;;;;;;;;;3.37;100.00;96352.47;5081332;28;19990;-67
2023/03/18 05:12:31;;;;;;;;;;;;;;;3.33;100.00;96358.88;5083213;28;19946;-72
2023/03/18 05:14:56;;;;;;;;;;;;;;;3.23;100.00;96360.84;5083712;28;20395;-71
2023/03/18 05:17:21;;;;;;;;;;;;;;;3.29;100.00;96358.72;5078685;28;20335;-72
2023/03/18 05:19:47;;;;;;;;;;;;;;;3.27;100.00;96360.19;5064781;28;19927;-71
2023/03/18 05:22:14;;;;;;;;;;;;;;;3.29;100.00;96366.06;5079113;28;19916;-71
2023/03/18 05:24:40;;;;;;;;;;;;;;;3.34;100.00;96355.84;5084099;28;19920;-72
2023/03/18 05:27:06;;;;;;;;;;;;;;;3.32;100.00;96349.97;5077596;28;19920;-71
2023/03/18 05:29:32;;;;;;;;;;;;;;;3.30;100.00;96352.22;5083219;28;19924;-72
2023/03/18 05:31:57;;;;;;;;;;;;;;;3.29;100.00;96355.25;5082992;28;19924;-71
2023/03/18 05:34:22;;;;;;;;;;;;;;;3.32;100.00;96354.59;5077881;28;20549;-72
2023/03/18 05:36:48;;;;;;;;;;;;;;;3.39;100.00;96352.16;5083292;28;19923;-71
2023/03/18 05:39:13;;;;;;;;;;;;;;;3.41;100.00;96344.50;5078445;28;20715;-69
2023/03/18 05:41:38;;;;;;;;;;;;;;;3.31;100.00;96350.28;5083018;28;19923;-73
2023/03/18 05:44:04;;;;;;;;;;;;;;;3.17;100.00;96343.22;5084939;28;19965;-65
2023/03/18 05:46:30;;;;;;;;;;;;;;;3.14;100.00;96348.47;5055587;28;19973;-70
2023/03/18 05:48:55;;;;;;;;;;;;;;;3.16;100.00;96352.44;5082912;28;19923;-70
2023/03/18 05:51:21;;;;;;;;;;;;;;;3.22;100.00;96353.03;5073047;28;19959;-72
2023/03/18 05:53:46;;;;;;;;;;;;;;;3.26;100.00;96354.00;5062748;28;19928;-72
2023/03/18 05:56:13;;;;;;;;;;;;;;;3.38;100.00;96359.47;5040129;28;19917;-72
2023/03/18 05:58:39;;;;;;;;;;;;;;;3.53;100.00;96368.13;5062118;28;19917;-72
2023/03/18 06:01:04;;;;;;;;;;;;;;;3.59;100.00;96364.13;5056732;28;19916;-66
2023/03/18 06:03:30;;;;;;;;;;;;;;;3.67;100.00;96365.97;5043373;28;19922;-69
2023/03/18 06:05:56;;;;;;;;;;;;;;;3.79;100.00;96366.03;5061983;28;19920;-72
2023/03/18 06:08:21;;;;;;;;;;;;;;;3.87;100.00;96361.69;5058507;28;20179;-71
2023/03/18 06:10:47;;;;;;;;;;;;;;;4.02;100.00;96371.13;5046259;28;19921;-69
2023/03/18 06:13:12;;;;;;;;;;;;;;;4.15;100.00;96361.13;5059511;28;19970;-70
2023/03/18 06:15:37;;;;;;;;;;;;;;;4.31;100.00;96361.31;5062530;28;20331;-71
2023/03/18 06:18:03;;;;;;;;;;;;;;;4.51;100.00;96363.16;5059737;28;19962;-66
2023/03/18 06:20:29;;;;;;;;;;;;;;;4.86;100.00;96370.13;5061575;28;19916;-70
2023/03/18 06:22:54;;;;;;;;;;;;;;;5.28;100.00;96364.50;5062458;28;19917;-72
2023/03/18 06:25:20;;;;;;;;;;;;;;;5.70;100.00;96373.16;5067985;28;19921;-72
2023/03/18 06:27:46;;;;;;;;;;;;;;;5.86;100.00;96367.00;5064781;28;19966;-72
2023/03/18 06:30:12;;;;;;;;;;;;;;;5.90;100.00;96363.25;5058229;28;20400;-72
2023/03/18 06:32:39;;;;;;;;;;;;;;;5.93;100.00;96367.22;5062320;28;19984;-72
2023/03/18 06:35:05;;;;;;;;;;;;;;;6.02;100.00;96364.41;5058108;28;19924;-67
2023/03/18 06:37:31;;;;;;;;;;;;;;;6.05;100.00;96366.41;5043595;28;19916;-72
2023/03/18 06:39:56;;;;;;;;;;;;;;;6.23;100.00;96359.56;5062152;28;20389;-72
2023/03/18 06:42:22;;;;;;;;;;;;;;;6.82;100.00;96357.97;5058120;28;20248;-70
2023/03/18 06:44:50;;;;;;;;;;;;;;;7.18;95.76;96368.97;5084676;28;19923;-69
2023/03/18 06:47:19;;;;;;;;;;;;;;;7.35;97.47;96356.94;5086318;28;19927;-72
2023/03/18 06:49:45;;;;;;;;;;;;;;;8.46;93.17;96366.69;5082021;28;19916;-72
2023/03/18 06:52:12;;;;;;;;;;;;;;;9.40;85.99;96369.88;5083608;28;19922;-72
2023/03/18 06:54:38;;;;;;;;;;;;;;;10.50;78.30;96369.81;5086307;28;19938;-72
2023/03/18 06:57:03;;;;;;;;;;;;;;;11.50;72.42;96376.59;5078188;28;19924;-67
2023/03/18 06:59:28;;;;;;;;;;;;;;;12.17;66.86;96369.97;5062997;28;19967;-71
2023/03/18 07:01:54;;;;;;;;;;;;;;;12.68;63.93;96369.00;5083195;28;19917;-71
2023/03/18 07:04:22;;;;;;;;;;;;;;;13.48;60.57;96372.66;5079048;28;19923;-70
2023/03/18 07:06:48;;;;;;;;;;;;;;;13.80;57.99;96377.38;5064578;28;20289;-73
2023/03/18 07:09:15;;;;;;;;;;;;;;;13.77;57.78;96384.44;5077429;28;19920;-72
2023/03/18 07:11:41;;;;;;;;;;;;;;;13.19;57.87;96391.88;5079497;28;19939;-71
2023/03/18 07:14:06;;;;;;;;;;;;;;;13.51;58.84;96388.41;5076500;28;20357;-72
2023/03/18 07:16:32;;;;;;;;;;;;;;;13.88;56.46;96387.97;5072412;28;19916;-71
2023/03/18 07:18:57;;;;;;;;;;;;;;;13.42;58.40;96388.78;5081148;28;19924;-70
2023/03/18 07:21:23;;;;;;;;;;;;;;;13.60;58.03;96383.28;5042036;28;20342;-70
2023/03/18 07:23:48;;;;;;;;;;;;;;;14.30;56.34;96380.78;5082307;28;19966;-71
2023/03/18 07:26:14;;;;;;;;;;;;;;;15.36;52.86;96387.31;5077445;28;19920;-68
2023/03/18 07:28:39;;;;;;;;;;;;;;;15.05;51.69;96379.66;5081265;28;20300;-70
2023/03/18 07:31:04;;;;;;;;;;;;;;;14.79;54.01;96385.72;5077135;28;19931;-66
2023/03/18 07:33:31;;;;;;;;;;;;;;;16.39;50.61;96390.34;5081204;28;20026;-70
2023/03/18 07:35:56;;;;;;;;;;;;;;;17.38;47.77;96398.53;5082543;28;19995;-71
2023/03/18 07:38:22;;;;;;;;;;;;;;;16.76;47.69;96391.47;5076844;28;20718;-70
2023/03/18 07:40:47;;;;;;;;;;;;;;;16.40;50.26;96395.47;5081547;28;19916;-71
2023/03/18 07:43:13;;;;;;;;;;;;;;;18.18;46.79;96398.00;5075327;28;19970;-72
2023/03/18 07:45:38;;;;;;;;;;;;;;;17.14;46.66;96400.47;5114117;28;19930;-69
2023/03/18 07:48:04;;;;;;;;;;;;;;;17.91;47.24;96398.88;5091952;28;20020;-67
2023/03/18 07:50:29;;;;;;;;;;;;;;;19.10;42.47;96389.03;5081846;28;19916;-72
2023/03/18 07:52:55;;;;;;;;;;;;;;;18.70;43.90;96394.59;5082445;28;19927;-76
2023/03/18 07:55:21;;;;;;;;;;;;;;;18.30;44.30;96391.06;5063276;28;20385;-70
2023/03/18 07:57:46;;;;;;;;;;;;;;;19.01;40.81;96394.38;5065442;28;19920;-71
2023/03/18 08:00:12;;;;;;;;;;;;;;;19.33;41.14;96392.09;5059725;28;19959;-71
2023/03/18 08:02:38;;;;;;;;;;;;;;;20.50;38.03;96395.91;5062496;28;20003;-72
2023/03/18 08:05:05;;;;;;;;;;;;;;;19.78;38.93;96394.22;5060853;28;20427;-70
2023/03/18 08:07:31;;;;;;;;;;;;;;;20.24;38.44;96393.03;5064608;28;19920;-71
2023/03/18 08:09:56;;;;;;;;;;;;;;;20.63;36.04;96409.88;5072496;28;19931;-70
2023/03/18 08:12:21;;;;;;;;;;;;;;;21.69;35.93;96409.91;5077667;28;19982;-71
2023/03/18 08:14:47;;;;;;;;;;;;;;;21.73;35.26;96407.00;5066533;28;19927;-73
2023/03/18 08:17:13;;;;;;;;;;;;;;;21.87;34.72;96416.91;5059173;28;19932;-72
2023/03/18 08:19:38;;;;;;;;;;;;;;;21.20;35.28;96413.78;5062402;28;19959;-72
2023/03/18 08:22:03;;;;;;;;;;;;;;;18.58;39.01;96416.66;5060403;28;19970;-68
2023/03/18 08:24:28;;;;;;;;;;;;;;;19.83;37.90;96410.38;5062839;28;19977;-73
2023/03/18 08:26:54;;;;;;;;;;;;;;;20.94;36.48;96417.75;5065589;28;19920;-72
2023/03/18 08:29:19;;;;;;;;;;;;;;;19.13;40.11;96411.59;5041887;28;20285;-70
2023/03/18 08:31:45;;;;;;;;;;;;;;;20.84;36.84;96416.09;5063565;28;20015;-71
2023/03/18 08:34:10;;;;;;;;;;;;;;;19.64;38.02;96412.78;5060183;28;19916;-72
2023/03/18 08:36:36;;;;;;;;;;;;;;;19.82;39.24;96406.81;5063345;28;19963;-70
2023/03/18 08:39:02;;;;;;;;;;;;;;;20.22;37.62;96406.59;5064410;28;19916;-71
2023/03/18 08:41:28;;;;;;;;;;;;;;;20.34;38.01;96404.31;5044643;28;19921;-69
2023/03/18 08:43:56;;;;;;;;;;;;;;;19.73;38.91;96395.53;5068249;28;19916;-72
2023/03/18 08:46:21;;;;;;;;;;;;;;;20.21;38.05;96393.13;5080094;28;20021;-72
2023/03/18 08:48:46;;;;;;;;;;;;;;;19.56;39.13;96393.94;5082627;28;19967;-73
2023/03/18 08:51:12;;;;;;;;;;;;;;;21.06;37.39;96400.28;5080093;28;19951;-72
2023/03/18 08:53:37;;;;;;;;;;;;;;;19.68;39.11;96396.81;5083967;28;19916;-72
2023/03/18 08:56:04;;;;;;;;;;;;;;;20.92;36.74;96393.16;5082983;28;19975;-69
2023/03/18 08:58:30;;;;;;;;;;;;;;;20.52;36.94;96395.47;5091159;28;19924;-73
2023/03/18 09:00:55;;;;;;;;;;;;;;;21.40;35.75;96390.50;5091318;28;19916;-73
2023/03/18 09:03:20;;;;;;;;;;;;;;;21.25;35.69;96389.38;5066532;28;19916;-71
2023/03/18 09:05:49;;;;;;;;;;;;;;;22.08;35.15;96390.34;5082957;28;19920;-72
2023/03/18 09:08:15;;;;;;;;;;;;;;;21.94;35.20;96380.44;5078635;28;19989;-70
2023/03/18 09:10:40;;;;;;;;;;;;;;;22.10;35.32;96382.28;5084093;28;19920;-72
2023/03/18 09:13:07;;;;;;;;;;;;;;;20.36;37.59;96371.28;5082225;28;19916;-71
2023/03/18 09:15:32;;;;;;;;;;;;;;;20.51;37.68;96369.66;5050651;28;19923;-71
2023/03/18 09:17:58;;;;;;;;;;;;;;;20.17;38.50;96373.00;5050632;28;19916;-71
2023/03/18 09:20:24;;;;;;;;;;;;;;;20.67;37.75;96371.63;5065514;28;19957;-69
2023/03/18 09:22:50;;;;;;;;;;;;;;;21.16;37.09;96373.38;5091617;28;19924;-70
2023/03/18 09:25:16;;;;;;;;;;;;;;;20.71;37.09;96375.09;5081148;28;19920;-72
2023/03/18 09:27:42;;;;;;;;;;;;;;;21.28;36.90;96372.56;5083956;28;20414;-72
2023/03/18 09:30:08;;;;;;;;;;;;;;;20.65;37.62;96376.06;5078909;28;19959;-71
2023/03/18 09:32:33;;;;;;;;;;;;;;;19.51;39.25;96373.03;5083501;28;19953;-73
2023/03/18 09:34:58;;;;;;;;;;;;;;;19.68;39.19;96363.47;5082429;28;19923;-71
2023/03/18 09:37:24;;;;;;;;;;;;;;;19.41;39.63;96368.50;5059075;28;20019;-70
2023/03/18 09:39:50;;;;;;;;;;;;;;;19.94;38.51;96362.88;5065311;28;19920;-72
2023/03/18 09:42:21;;;;;;;;;;;;;;;19.63;39.52;96350.09;5060688;28;20365;-73
2023/03/18 09:44:53;;;;;;;;;;;;;;;18.99;40.90;96340.53;5064606;28;19920;-73
2023/03/18 09:47:34;;;;;;;;;;;;;;;19.46;40.89;96343.00;5076326;28;20462;-72
2023/03/18 09:49:59;;;;;;;;;;;;;;;19.91;39.50;96350.63;5082575;28;19920;-72
2023/03/18 09:52:30;;;;;;;;;;;;;;;20.33;38.08;96345.13;5059405;28;20318;-71
2023/03/18 09:55:02;;;;;;;;;;;;;;;20.30;38.69;96334.88;5082373;28;20006;-72
2023/03/18 09:57:32;;;;;;;;;;;;;;;19.81;39.14;96335.78;5078788;28;19963;-72
2023/03/18 10:00:01;;;;;;;;;;;;;;;20.53;38.50;96342.19;5083513;28;19924;-72
2023/03/18 10:02:32;;;;;;;;;;;;;;;20.24;39.18;96342.97;5060680;28;19928;-71
2023/03/18 10:05:02;;;;;;;;;;;;;;;19.95;39.27;96342.19;5083511;28;19920;-72
2023/03/18 10:07:30;;;;;;;;;;;;;;;19.53;39.75;96345.59;5079064;28;19924;-70
2023/03/18 10:09:59;;;;;;;;;;;;;;;19.47;39.67;96345.34;5082807;28;19969;-71
2023/03/18 10:12:34;;;;;;;;;;;;;;;19.29;39.88;96343.00;5078830;28;20400;-73
2023/03/18 10:15:12;;;;;;;;;;;;;;;19.35;39.87;96351.56;5082474;28;20266;-70
2023/03/18 10:17:42;;;;;;;;;;;;;;;19.09;39.28;96348.63;5081661;28;20699;-72
2023/03/18 10:20:16;;;;;;;;;;;;;;;19.88;38.54;96343.16;5077026;28;19920;-70
2023/03/18 10:22:58;;;;;;;;;;;;;;;19.48;39.18;96355.25;5063821;28;20384;-72
2023/03/18 10:25:34;;;;;;;;;;;;;;;18.81;40.18;96347.25;5077605;28;20662;-68
2023/03/18 10:28:18;;;;;;;;;;;;;;;19.13;39.84;96354.09;5082063;28;19990;-73
2023/03/18 10:30:49;;;;;;;;;;;;;;;19.60;38.17;96350.19;5082144;28;19999;-72
2023/03/18 10:33:33;;;;;;;;;;;;;;;19.41;38.71;96337.94;5076890;28;19916;-71
2023/03/18 10:36:11;;;;;;;;;;;;;;;18.73;40.31;96338.28;5082594;28;19920;-70
2023/03/18 10:38:38;;;;;;;;;;;;;;;18.43;40.99;96342.06;5081934;28;20015;-72
2023/03/18 10:41:13;;;;;;;;;;;;;;;18.38;41.24;96345.34;5080088;28;19927;-70
2023/03/18 10:43:38;;;;;;;;;;;;;;;18.96;40.73;96330.28;5085235;28;19923;-72
2023/03/18 10:46:06;;;;;;;;;;;;;;;17.76;41.82;96336.59;5089662;28;19920;-67
2023/03/18 10:48:34;;;;;;;;;;;;;;;18.66;41.57;96327.34;5060950;28;20007;-73
2023/03/18 10:51:06;;;;;;;;;;;;;;;19.42;39.46;96329.19;5081316;28;19920;-71
2023/03/18 10:53:42;;;;;;;;;;;;;;;18.64;40.99;96337.31;5081016;28;19916;-72
2023/03/18 10:56:09;;;;;;;;;;;;;;;18.54;40.37;96336.31;5056935;28;20384;-72
2023/03/18 10:58:35;;;;;;;;;;;;;;;18.76;41.47;96330.31;5061696;28;19942;-72
2023/03/18 11:01:01;;;;;;;;;;;;;;;19.04;40.72;96326.91;5062562;28;19916;-72
2023/03/18 11:03:28;;;;;;;;;;;;;;;18.99;40.69;96324.66;5059980;28;20371;-71
2023/03/18 11:05:56;;;;;;;;;;;;;;;19.18;40.31;96322.25;5073477;28;19917;-71
2023/03/18 11:08:31;;;;;;;;;;;;;;;19.01;40.36;96321.44;5071458;28;19961;-72
2023/03/18 11:10:57;;;;;;;;;;;;;;;18.31;40.68;96320.53;5064144;28;19970;-72
2023/03/18 11:13:22;;;;;;;;;;;;;;;18.76;40.68;96316.44;5050779;28;19925;-73
2023/03/18 11:15:48;;;;;;;;;;;;;;;19.02;41.14;96323.03;5063340;28;19927;-71
2023/03/18 11:18:15;;;;;;;;;;;;;;;18.74;41.74;96319.63;5057257;28;19923;-71
2023/03/18 11:20:43;;;;;;;;;;;;;;;19.68;40.23;96298.81;5061384;28;19924;-72
2023/03/18 11:23:34;;;;;;;;;;;;;;;19.75;40.32;96293.06;5056284;28;19916;-71
2023/03/18 11:26:01;;;;;;;;;;;;;;;20.14;38.77;96291.22;5043205;28;20396;-72
2023/03/18 11:28:28;;;;;;;;;;;;;;;20.62;38.43;96289.47;5055633;28;19932;-68
2023/03/18 11:30:57;;;;;;;;;;;;;;;20.38;39.05;96283.41;5077174;28;19955;-70
2023/03/18 11:33:23;;;;;;;;;;;;;;;20.58;37.42;96290.75;5074369;28;19954;-70
2023/03/18 11:35:50;;;;;;;;;;;;;;;20.92;38.28;96276.25;5066693;28;19917;-72
2023/03/18 11:38:28;;;;;;;;;;;;;;;21.57;35.97;96268.59;5062217;28;19916;-72
2023/03/18 11:41:07;;;;;;;;;;;;;;;21.43;37.64;96266.25;5066380;28;19920;-71
2023/03/18 11:43:33;;;;;;;;;;;;;;;21.28;37.34;96272.28;5065757;28;19971;-71
2023/03/18 11:46:01;;;;;;;;;;;;;;;20.83;37.81;96255.88;5084430;28;19945;-70
2023/03/18 11:48:32;;;;;;;;;;;;;;;20.96;38.43;96267.78;5083867;28;19924;-71
2023/03/18 11:51:07;;;;;;;;;;;;;;;20.88;38.07;96264.44;5087421;28;19980;-71
2023/03/18 11:53:42;;;;;;;;;;;;;;;20.90;38.44;96258.44;5086802;28;19927;-70
2023/03/18 11:56:20;;;;;;;;;;;;;;;21.00;38.64;96254.53;5060850;28;19921;-72
2023/03/18 11:58:53;;;;;;;;;;;;;;;20.76;37.53;96257.66;5066489;28;19916;-70
2023/03/18 12:01:25;;;;;;;;;;;;;;;20.58;38.08;96251.81;5060165;28;19921;-72
2023/03/18 12:04:03;;;;;;;;;;;;;;;19.92;38.96;96245.81;5064385;28;20431;-71
2023/03/18 12:06:30;;;;;;;;;;;;;;;19.32;40.14;96241.41;5044976;28;20018;-72
2023/03/18 12:08:58;;;;;;;;;;;;;;;19.18;41.12;96238.97;5065726;28;19920;-72
2023/03/18 12:11:24;;;;;;;;;;;;;;;19.24;40.79;96237.22;5060386;28;20193;-69
2023/03/18 12:14:00;;;;;;;;;;;;;;;18.71;41.60;96232.53;5063976;28;19920;-72
2023/03/18 12:16:44;;;;;;;;;;;;;;;18.88;41.66;96233.34;5066445;28;19945;-70
2023/03/18 12:19:15;;;;;;;;;;;;;;;18.40;41.83;96234.00;5064184;28;20002;-71
2023/03/18 12:21:40;;;;;;;;;;;;;;;18.46;41.86;96227.53;5066490;28;20280;-71
2023/03/18 12:24:05;;;;;;;;;;;;;;;18.36;42.32;96223.00;5042760;28;20007;-70
2023/03/18 12:26:31;;;;;;;;;;;;;;;18.45;42.40;96219.66;5065546;28;20020;-71
2023/03/18 12:29:17;;;;;;;;;;;;;;;18.59;41.70;96213.78;5065743;28;20026;-71
2023/03/18 12:32:01;;;;;;;;;;;;;;;18.48;41.36;96216.03;5064910;28;19916;-70
2023/03/18 12:34:35;;;;;;;;;;;;;;;18.09;41.54;96210.09;5059992;28;19916;-71
2023/03/18 12:37:19;;;;;;;;;;;;;;;17.93;41.68;96205.31;5063230;28;19927;-69
2023/03/18 12:39:54;;;;;;;;;;;;;;;17.75;43.76;96202.06;5063697;28;20376;-69
2023/03/18 12:42:22;;;;;;;;;;;;;;;17.85;42.71;96205.84;5059490;28;19979;-71
2023/03/18 12:45:01;;;;;;;;;;;;;;;17.92;41.74;96205.75;5064219;28;19977;-71
2023/03/18 12:47:28;;;;;;;;;;;;;;;17.67;42.86;96186.81;5064192;28;19967;-69
2023/03/18 12:49:57;;;;;;;;;;;;;;;17.77;42.26;96200.47;5084009;28;19920;-70